Condiciones actuales en los principales Aeropuertos de España-Datos Metar

 

LEAL - Alicante
Actualización: 17/06/2019 16:30
Few Clouds
Few Clouds
 Viento del SE
Viento: SE 15 km/h
Temperatura: 27°C
Heat Index: 27°C
Rocío: 15°C
Humedad: 48%
Barómetro: 1016 hPa
Nubosidad: Few Clouds
Visibilidad: 10 km
Cloud details: Few Clouds 305 m
2019/06/17 14:30 LEAL 171430Z 13008KT 070V200 9999 FEW010 27/15 Q1016 NOSIG
LEAB - Albacete
Actualización: 17/06/2019 16:00
Despejado
Despejado
 Viento del S
Viento: S 15 km/h
Temperatura: 30°C
Rocío: 4°C
Humedad: 19%
Barómetro: 1017 hPa
Resumen: Despejado
Visibilidad: greater than 10 km
2019/06/17 14:00 LEAB 171400Z 18008KT 150V230 CAVOK 30/04 Q1017 NOSIG
LEAM - Almería
Actualización: 17/06/2019 16:30
Despejado
Despejado
 Viento del S
Viento: S 13 km/h
Temperatura: 22°C
Rocío: 17°C
Humedad: 73%
Barómetro: 1016 hPa
Resumen: Despejado
Visibilidad: greater than 10 km
2019/06/17 14:30 LEAM 171430Z 19007KT 150V240 CAVOK 22/17 Q1016
 
LEAS - Asturias/Aviles
Actualización: 17/06/2019 16:30
Mostly Cloudy
Mostly Cloudy
 Viento del NNO
Viento: NNO 9 km/h
Temperatura: 16°C
Rocío: 14°C
Humedad: 88%
Barómetro: 1015 hPa
Nubosidad: Mostly Cloudy
Visibilidad: 10 km
Cloud details: Few Clouds 274 m
Partly Cloudy 396 m
Mostly Cloudy 457 m
2019/06/17 14:30 LEAS 171430Z 34005KT 320V020 9999 FEW009 SCT013 BKN015 16/14 Q1015 NOSIG
LEBZ - Badajoz/Talavera la Real
Actualización: 17/06/2019 16:00
Despejado
Despejado
 Viento del SSO
Viento: SSO 9 km/h
Temperatura: 31°C
Rocío: -1°C
Humedad: 13%
Barómetro: 1014 hPa
Resumen: Despejado
Visibilidad: greater than 10 km
2019/06/17 14:00 LEBZ 171400Z 21005KT CAVOK 31/M01 Q1014
LEBL - Barcelona
Actualización: 17/06/2019 16:30
Despejado
Despejado
 Viento del SO
Viento: SO 31 km/h
Temperatura: 23°C
Rocío: 18°C
Humedad: 74%
Barómetro: 1016 hPa
Resumen: Despejado
Visibilidad: greater than 10 km
2019/06/17 14:30 LEBL 171430Z 22017KT CAVOK 23/18 Q1016 NOSIG
 
LEBB - Bilbao
Actualización: 17/06/2019 16:30
Few Clouds
Few Clouds
 Viento del ONO
Viento: ONO 20 km/h
Temperatura: 22°C
Rocío: 17°C
Humedad: 73%
Barómetro: 1013 hPa
Nubosidad: Few Clouds
Visibilidad: 10 km
Cloud details: Few Clouds 914 m
2019/06/17 14:30 LEBB 171430Z 29011KT 260V320 9999 FEW030 22/17 Q1013 NOSIG
LEBG - Burgos/Villafría
Actualización: 17/06/2019 16:30
Despejado
Despejado
 Viento del SSE
Viento: SSE 17 km/h, Racha: 35 km/h
Temperatura: 27°C
Rocío: 1°C
Humedad: 18%
Barómetro: 1016 hPa
Resumen: Despejado
Visibilidad: greater than 10 km
2019/06/17 14:30 LEBG 171430Z 16009G19KT 120V190 CAVOK 27/01 Q1016
LEBA - Córdoba
Actualización: 17/06/2019 16:30
Despejado
Despejado
 Viento del OSO
Viento: OSO 13 km/h
Temperatura: 32°C
Rocío: 5°C
Humedad: 18%
Barómetro: 1014 hPa
Resumen: Despejado
Visibilidad: greater than 10 km
2019/06/17 14:30 LEBA 171430Z 24007KT 200V300 CAVOK 32/05 Q1014
 
LEGE - Gerona
Actualización: 17/06/2019 16:30
Few Clouds
Few Clouds
 Viento del S
Viento: S 22 km/h
Temperatura: 29°C
Rocío: 9°C
Humedad: 29%
Barómetro: 1015 hPa
Nubosidad: Few Clouds
Visibilidad: 10 km
Cloud details: Few Clouds 914 m
2019/06/17 14:30 LEGE 171430Z 19012KT 150V230 9999 FEW030 29/09 Q1015
LEGR - Granada
Actualización: 17/06/2019 16:30
Few Clouds
Few Clouds
 Viento del O
Viento: O 15 km/h, Racha: 33 km/h
Temperatura: 32°C
Rocío: 5°C
Humedad: 18%
Barómetro: 1016 hPa
Nubosidad: Few Clouds
Visibilidad: 10 km
Cloud details: Few Clouds 1524 m
2019/06/17 14:30 LEGR 171430Z 26008G18KT 220V350 9999 FEW050 32/05 Q1016
GCHI - Hierro
Actualización: 17/06/2019 16:30
Few Clouds
Few Clouds
 Viento del E
Viento: E 11 km/h
Temperatura: 23°C
Rocío: 18°C
Humedad: 74%
Barómetro: 1019 hPa
Nubosidad: Few Clouds
Visibilidad: 10 km
Cloud details: Few Clouds 914 m
2019/06/17 14:30 GCHI 171430Z 10006KT 9999 FEW030 23/18 Q1019
 
LEIB - Ibiza
Actualización: 17/06/2019 16:30
Despejado
Despejado
 Viento del SO
Viento: SO 15 km/h
Temperatura: 25°C
Rocío: 14°C
Humedad: 51%
Barómetro: 1016 hPa
Resumen: Despejado
Visibilidad: greater than 10 km
2019/06/17 14:30 LEIB 171430Z 22008KT 170V260 CAVOK 25/14 Q1016 WS R24 NOSIG
LEJR - Jerez de la Frontera
Actualización: 17/06/2019 16:30
Despejado
Despejado
 Viento del OSO
Viento: OSO 20 km/h
Temperatura: 27°C
Heat Index: 27°C
Rocío: 14°C
Humedad: 45%
Barómetro: 1015 hPa
Resumen: Despejado
Visibilidad: greater than 10 km
2019/06/17 14:30 LEJR 171430Z 24011KT 200V280 CAVOK 27/14 Q1015
LECO - A Coruña
Actualización: 17/06/2019 16:30
Few Clouds
Few Clouds
 Viento del varies
Viento: varies 4 km/h
Temperatura: 18°C
Rocío: 14°C
Humedad: 78%
Barómetro: 1015 hPa
Nubosidad: Few Clouds
Visibilidad: 10 km
Cloud details: Few Clouds 762 m
2019/06/17 14:30 LECO 171430Z VRB02KT 9999 FEW025 18/14 Q1015 NOSIG
 
GCLA - La Palma
Actualización: 17/06/2019 16:30
Few Clouds
Few Clouds
 Viento del E
Viento: E 9 km/h
Temperatura: 25°C
Rocío: 16°C
Humedad: 57%
Barómetro: 1019 hPa
Nubosidad: Few Clouds
Visibilidad: 10 km
Cloud details: Few Clouds 1372 m
2019/06/17 14:30 GCLA 171430Z 10005KT 050V160 9999 FEW045 25/16 Q1019
GCRR - Lanzarote
Actualización: 17/06/2019 16:30
Few Clouds
Few Clouds
 Viento del ESE
Viento: ESE 13 km/h
Temperatura: 22°C
Rocío: 17°C
Humedad: 73%
Barómetro: 1019 hPa
Nubosidad: Few Clouds
Visibilidad: 10 km
Cloud details: Few Clouds 914 m
2019/06/17 14:30 GCRR 171430Z 12007KT 9999 FEW030 22/17 Q1019
GCLP - Las Palmas
Actualización: 17/06/2019 16:30
Few Clouds
Few Clouds
 Viento del SE
Viento: SE 13 km/h
Temperatura: 23°C
Rocío: 16°C
Humedad: 65%
Barómetro: 1019 hPa
Nubosidad: Few Clouds
Visibilidad: 10 km
Cloud details: Few Clouds 762 m
2019/06/17 14:30 GCLP 171430Z 13007KT 080V170 9999 FEW025 23/16 Q1019 NOSIG
 
LELN - León
Actualización: 17/06/2019 16:30
Despejado
Despejado
 Viento del SO
Viento: SO 19 km/h, Racha: 39 km/h
Temperatura: 25°C
Rocío: -3°C
Humedad: 15%
Barómetro: 1016 hPa
Resumen: Despejado
Visibilidad: greater than 10 km
2019/06/17 14:30 LELN 171430Z 22010G21KT 160V270 CAVOK 25/M03 Q1016
LELO - Logroño
Actualización: 17/06/2019 16:30
Few Clouds
Few Clouds
 Viento del varies
Viento: varies 7 km/h
Temperatura: 34°C
Rocío: 6°C
Humedad: 17%
Barómetro: 1013 hPa
Nubosidad: Few Clouds
Visibilidad: 10 km
Cloud details: Few Clouds 1524 m
2019/06/17 14:30 LELO 171430Z VRB04KT 9999 FEW050 34/06 Q1013
LECV - Madrid/Colmenar
Actualización: 17/06/2019 16:00
Despejado
Despejado
 Viento del SSO
Viento: SSO 11 km/h
Temperatura: 27°C
Rocío: -3°C
Humedad: 14%
Barómetro: 1018 hPa
Resumen: Despejado
Visibilidad: greater than 10 km
2019/06/17 14:00 LECV 171400Z 20006KT CAVOK 27/M03 Q1018
 
LEMD - Madrid/Barajas
Actualización: 17/06/2019 16:30
Despejado
Despejado
 Viento del SO
Viento: SO 20 km/h, Racha: 52 km/h
Temperatura: 31°C
Rocío: -2°C
Humedad: 12%
Barómetro: 1015 hPa
Resumen: Despejado
Visibilidad: greater than 10 km
2019/06/17 14:30 LEMD 171430Z 23011G28KT 190V260 CAVOK 31/M02 Q1015 NOSIG
LEVS - Madrid/Cuatro Vientos
Actualización: 17/06/2019 16:30
Despejado
Despejado
 Viento del SSE
Viento: SSE 20 km/h
Temperatura: 30°C
Rocío: 0°C
Humedad: 14%
Barómetro: 1016 hPa
Resumen: Despejado
Visibilidad: greater than 10 km
2019/06/17 14:30 LEVS 171430Z 16011KT 110V190 CAVOK 30/M00 Q1016
LEGT - Madrid/Getafe
Actualización: 17/06/2019 16:00
Despejado
Despejado
 Viento del SO
Viento: SO 15 km/h, Racha: 33 km/h
Temperatura: 31°C
Rocío: 2°C
Humedad: 16%
Barómetro: 1016 hPa
Resumen: Despejado
Visibilidad: greater than 10 km
2019/06/17 14:00 LEGT 171400Z 22008G18KT 170V260 CAVOK 31/02 Q1016
 
LETO - Madrid/Torrejón
Actualización: 17/06/2019 16:00
Despejado
Despejado
 Viento del SO
Viento: SO 24 km/h
Temperatura: 31°C
Rocío: -2°C
Humedad: 12%
Barómetro: 1016 hPa
Resumen: Despejado
Visibilidad: greater than 10 km
2019/06/17 14:00 LETO 171400Z 22013KT 170V260 CAVOK 31/M02 Q1016 NOSIG
LEMG - Málaga
Actualización: 17/06/2019 16:30
Despejado
Despejado
 Viento del ESE
Viento: ESE 20 km/h
Temperatura: 23°C
Rocío: 17°C
Humedad: 69%
Barómetro: 1016 hPa
Resumen: Despejado
Visibilidad: greater than 10 km
2019/06/17 14:30 LEMG 171430Z 12011KT 100V160 CAVOK 23/17 Q1016 NOSIG
GEML - Melilla
Actualización: 17/06/2019 16:30
Few Clouds
Few Clouds
 Viento del NE
Viento: NE 13 km/h
Temperatura: 24°C
Rocío: 17°C
Humedad: 65%
Barómetro: 1016 hPa
Nubosidad: Few Clouds
Visibilidad: 10 km
Cloud details: Few Clouds 366 m
2019/06/17 14:30 GEML 171430Z 05007KT 9999 FEW012 24/17 Q1016
 
LEMH - Mahón
Actualización: 17/06/2019 16:30
Despejado
Despejado
 Viento del S
Viento: S 15 km/h
Temperatura: 25°C
Rocío: 15°C
Humedad: 54%
Barómetro: 1017 hPa
Resumen: Despejado
Visibilidad: greater than 10 km
2019/06/17 14:30 LEMH 171430Z 19008KT 150V220 CAVOK 25/15 Q1017
LEMO - Morón de La Frontera
Actualización: 17/06/2019 16:00
Despejado
Despejado
 Viento del varies
Viento: varies 13 km/h
Temperatura: 31°C
Rocío: 6°C
Humedad: 21%
Barómetro: 1015 hPa
Resumen: Despejado
Visibilidad: greater than 10 km
2019/06/17 14:00 LEMO 171400Z VRB07KT CAVOK 31/06 Q1015 NOSIG
LEMI - Murcia/Corvera
Actualización: 17/06/2019 16:30
Despejado
Despejado
 Viento del SSE
Viento: SSE 17 km/h
Temperatura: 29°C
Rocío: 9°C
Humedad: 29%
Barómetro: 1016 hPa
Resumen: Despejado
Visibilidad: greater than 10 km
2019/06/17 14:30 LEMI 171430Z 16009KT 110V200 CAVOK 29/09 Q1016
 
LERI - Murcia/Alcantarilla
Actualización: 17/06/2019 16:00
Despejado
Despejado
 Viento del SE
Viento: SE 17 km/h
Temperatura: 33°C
Rocío: 7°C
Humedad: 20%
Barómetro: 1015 hPa
Resumen: Despejado
Visibilidad: greater than 10 km
2019/06/17 14:00 LERI 171400Z 13009KT 090V160 CAVOK 33/07 Q1015 NOSIG
LELC - Murcia/San Javier
Actualización: 17/06/2019 16:30
Despejado
Despejado
 Viento del SE
Viento: SE 19 km/h
Temperatura: 27°C
Heat Index: 28°C
Rocío: 17°C
Humedad: 54%
Barómetro: 1016 hPa
Resumen: Despejado
Visibilidad: greater than 10 km
2019/06/17 14:30 LELC 171430Z 14010KT CAVOK 27/17 Q1016 NOSIG
LEPA - Palma de Mallorca
Actualización: 17/06/2019 16:30
Few Clouds
Few Clouds
 Viento del SO
Viento: SO 20 km/h
Temperatura: 25°C
Rocío: 16°C
Humedad: 57%
Barómetro: 1017 hPa
Nubosidad: Few Clouds
Visibilidad: 10 km
Cloud details: Few Clouds 914 m
2019/06/17 14:30 LEPA 171430Z 22011KT 190V250 9999 FEW030 25/16 Q1017 NOSIG
 
LEPP - Pamplona
Actualización: 17/06/2019 16:30
Few Clouds
Few Clouds
 Viento del ENE
Viento: ENE 6 km/h
Temperatura: 30°C
Rocío: 5°C
Humedad: 20%
Barómetro: 1014 hPa
Nubosidad: Few Clouds
Visibilidad: 10 km
Cloud details: Few Clouds 914 m
2019/06/17 14:30 LEPP 171430Z 07003KT 9999 FEW030 30/05 Q1014
LERS - Reus
Actualización: 17/06/2019 16:30
Few Clouds
Few Clouds
 Viento del S
Viento: S 13 km/h
Temperatura: 25°C
Rocío: 16°C
Humedad: 57%
Barómetro: 1016 hPa
Nubosidad: Few Clouds
Visibilidad: 10 km
Cloud details: Few Clouds 1372 m
2019/06/17 14:30 LERS 171430Z 17007KT 120V230 9999 FEW045 25/16 Q1016
LERT - Rota
Actualización: 17/06/2019 16:00
Despejado
Despejado
 Viento del O
Viento: O 22 km/h
Temperatura: 21°C
Rocío: 16°C
Humedad: 73%
Barómetro: 1016 hPa
Resumen: Despejado
Visibilidad: greater than 10 km
2019/06/17 14:00 LERT 171400Z 26012KT 230V300 CAVOK 21/16 Q1016 NOSIG
 
LELL - Sabadell
Actualización: 17/06/2019 16:30
Despejado
Despejado
 Viento del SSE
Viento: SSE 20 km/h
Temperatura: 30°C
Rocío: 12°C
Humedad: 33%
Barómetro: 1015 hPa
Resumen: Despejado
Visibilidad: greater than 10 km
2019/06/17 14:30 LELL 171430Z 15011KT CAVOK 30/12 Q1015
LESA - Salamanca
Actualización: 17/06/2019 16:30
Despejado
Despejado
 Viento del O
Viento: O 24 km/h
Temperatura: 28°C
Rocío: 4°C
Humedad: 21%
Barómetro: 1016 hPa
Resumen: Despejado
Visibilidad: greater than 10 km
2019/06/17 14:30 LESA 171430Z 26013KT 210V300 CAVOK 28/04 Q1016
LESO - San Sebastián
Actualización: 17/06/2019 16:30
Despejado
Despejado
 Viento del N
Viento: N 11 km/h
Temperatura: 21°C
Rocío: 17°C
Humedad: 78%
Barómetro: 1013 hPa
Resumen: Despejado
Visibilidad: greater than 10 km
2019/06/17 14:30 LESO 171430Z 36006KT 320V040 CAVOK 21/17 Q1013
 
LEXJ - Santander
Actualización: 17/06/2019 16:30
Mostly Cloudy
Mostly Cloudy
 Viento del N
Viento: N 9 km/h
Temperatura: 19°C
Rocío: 15°C
Humedad: 78%
Barómetro: 1014 hPa
Nubosidad: Mostly Cloudy
Visibilidad: 10 km
Cloud details: Mostly Cloudy 488 m
2019/06/17 14:30 LEXJ 171430Z 35005KT 320V030 9999 BKN016 19/15 Q1014
LEPA - Palma de Mallorca
Actualización: 17/06/2019 16:30
Few Clouds
Few Clouds
 Viento del SO
Viento: SO 20 km/h
Temperatura: 25°C
Rocío: 16°C
Humedad: 57%
Barómetro: 1017 hPa
Nubosidad: Few Clouds
Visibilidad: 10 km
Cloud details: Few Clouds 914 m
2019/06/17 14:30 LEPA 171430Z 22011KT 190V250 9999 FEW030 25/16 Q1017 NOSIG
LEPP - Pamplona
Actualización: 17/06/2019 16:30
Few Clouds
Few Clouds
 Viento del ENE
Viento: ENE 6 km/h
Temperatura: 30°C
Rocío: 5°C
Humedad: 20%
Barómetro: 1014 hPa
Nubosidad: Few Clouds
Visibilidad: 10 km
Cloud details: Few Clouds 914 m
2019/06/17 14:30 LEPP 171430Z 07003KT 9999 FEW030 30/05 Q1014
 
LEST - Santiago de Compostela
Actualización: 17/06/2019 16:30
Few Clouds
Few Clouds
 Viento del OSO
Viento: OSO 17 km/h
Temperatura: 18°C
Rocío: 12°C
Humedad: 68%
Barómetro: 1016 hPa
Nubosidad: Few Clouds
Visibilidad: 10 km
Cloud details: Few Clouds 610 m
2019/06/17 14:30 LEST 171430Z 25009KT 190V290 9999 FEW020 18/12 Q1016 NOSIG
LEZL - Sevilla
Actualización: 17/06/2019 16:30
Despejado
Despejado
 Viento del OSO
Viento: OSO 15 km/h
Temperatura: 32°C
Rocío: 11°C
Humedad: 27%
Barómetro: 1014 hPa
Resumen: Despejado
Visibilidad: greater than 10 km
2019/06/17 14:30 LEZL 171430Z 24008KT 210V290 CAVOK 32/11 Q1014 NOSIG
GCXO - Tenerife
Actualización: 17/06/2019 16:30
Few Clouds
Few Clouds
 Viento del varies
Viento: varies 11 km/h
Temperatura: 23°C
Rocío: 14°C
Humedad: 57%
Barómetro: 1021 hPa
Nubosidad: Few Clouds
Visibilidad: 10 km
Cloud details: Few Clouds 457 m
2019/06/17 14:30 GCXO 171430Z VRB06KT 9999 FEW015 23/14 Q1021
 
GCTS - Tenerife-Sur
Actualización: 17/06/2019 16:30
Few Clouds
Few Clouds
 Viento del SO
Viento: SO 26 km/h
Temperatura: 24°C
Rocío: 18°C
Humedad: 69%
Barómetro: 1019 hPa
Nubosidad: Few Clouds
Visibilidad: 10 km
Cloud details: Few Clouds 1067 m
2019/06/17 14:30 GCTS 171430Z 23014KT 9999 FEW035 24/18 Q1019 NOSIG
LEVC - Valencia
Actualización: 17/06/2019 16:30
Few Clouds
Few Clouds
 Viento del E
Viento: E 17 km/h
Temperatura: 26°C
Rocío: 17°C
Humedad: 58%
Barómetro: 1015 hPa
Nubosidad: Few Clouds
Visibilidad: 10 km
Cloud details: Few Clouds 914 m
2019/06/17 14:30 LEVC 171430Z 09009KT 030V120 9999 FEW030 26/17 Q1015 NOSIG
LEVD - Valladolid
Actualización: 17/06/2019 16:30
Despejado
Despejado
 Viento del SO
Viento: SO 9 km/h
Temperatura: 27°C
Rocío: 0°C
Humedad: 17%
Barómetro: 1016 hPa
Resumen: Despejado
Visibilidad: greater than 10 km
2019/06/17 14:30 LEVD 171430Z 22005KT 140V290 CAVOK 27/00 Q1016
 
LEVX - Vigo
Actualización: 17/06/2019 16:30
Despejado
Despejado
 Viento del NE
Viento: NE 6 km/h
Temperatura: 18°C
Rocío: 13°C
Humedad: 73%
Barómetro: 1016 hPa
Resumen: Despejado
Visibilidad: greater than 10 km
2019/06/17 14:30 LEVX 171430Z 04003KT 350V120 CAVOK 18/13 Q1016 NOSIG
LEVT - Vitoria
Actualización: 17/06/2019 16:30
Few Clouds
Few Clouds
 Viento del SSE
Viento: SSE 7 km/h
Temperatura: 31°C
Rocío: 7°C
Humedad: 22%
Barómetro: 1014 hPa
Nubosidad: Few Clouds
Visibilidad: 10 km
Cloud details: Few Clouds 1829 m
2019/06/17 14:30 LEVT 171430Z 15004KT 090V220 9999 FEW060 31/07 Q1014
LEZG - Zaragoza
Actualización: 17/06/2019 16:30
Few Clouds
Few Clouds
 Viento del ENE
Viento: ENE 13 km/h
Temperatura: 34°C
Rocío: 1°C
Humedad: 12%
Barómetro: 1013 hPa
Nubosidad: Few Clouds
Visibilidad: 10 km
Cloud details: Few Clouds 1524 m
2019/06/17 14:30 LEZG 171430Z 06007KT 360V110 9999 FEW050 34/01 Q1013

La estación de MeteoMurcia.com, publica sus datos en los siguientes proyectos:

Weather Underground PWS IMURCIAP2 Meteoclimatic www.awekas.at

W3Counter
Web Analytics